DLH4XV EDDL-EDDF
Flight info
| Callsign | DLH4XV |
|---|---|
| Flight time | N/A |
| Altitude | 21000 |
| Route | COL6T COL T911 ROLIS ROLIS5A |
| Aircraft | A321/M-SDE3FGHIRWY/LB1 |
Departure
| Time | 2026-05-04 20:00 |
|---|---|
| Airport | Düsseldorf Airport (EDDL) |
Arrival
| Time | N/A |
|---|---|
| Airport | Frankfurt Main Airport (EDDF) |
| Time | Latitude | Longitude | Altitude | Speed | Heading |
|---|---|---|---|---|---|
| 2026-05-04 19:25 | 51.28315 | 6.77021 | 127 ft | 0 kts | 142° |
| 2026-05-04 19:36 | 51.28319 | 6.77016 | 127 ft | 2 kts | 141° |
| 2026-05-04 19:36 | 51.28332 | 6.77000 | 125 ft | 2 kts | 141° |
| 2026-05-04 19:36 | 51.28345 | 6.76984 | 129 ft | 2 kts | 143° |
| 2026-05-04 19:37 | 51.28360 | 6.76973 | 125 ft | 2 kts | 209° |
| 2026-05-04 19:37 | 51.28372 | 6.76990 | 127 ft | 2 kts | 235° |
| 2026-05-04 19:37 | 51.28382 | 6.77011 | 126 ft | 2 kts | 232° |
| 2026-05-04 19:37 | 51.28386 | 6.77018 | 126 ft | 0 kts | 232° |
| 2026-05-04 19:39 | 51.28383 | 6.77011 | 129 ft | 3 kts | 232° |
| 2026-05-04 19:39 | 51.28357 | 6.76957 | 126 ft | 9 kts | 235° |
| 2026-05-04 19:40 | 51.28377 | 6.76859 | 126 ft | 12 kts | 325° |
| 2026-05-04 19:40 | 51.28418 | 6.76814 | 124 ft | 0 kts | 324° |
| 2026-05-04 19:40 | 51.28441 | 6.76787 | 125 ft | 10 kts | 324° |
| 2026-05-04 19:40 | 51.28506 | 6.76812 | 128 ft | 11 kts | 49° |
| 2026-05-04 19:41 | 51.28566 | 6.76937 | 128 ft | 17 kts | 52° |
| 2026-05-04 19:41 | 51.28645 | 6.77104 | 127 ft | 18 kts | 53° |
| 2026-05-04 19:41 | 51.28715 | 6.77250 | 129 ft | 15 kts | 53° |
| 2026-05-04 19:41 | 51.28770 | 6.77367 | 129 ft | 12 kts | 52° |
| 2026-05-04 19:42 | 51.28815 | 6.77460 | 127 ft | 9 kts | 52° |
| 2026-05-04 19:42 | 51.28846 | 6.77525 | 130 ft | 6 kts | 52° |
| 2026-05-04 19:42 | 51.28865 | 6.77566 | 127 ft | 4 kts | 52° |
| 2026-05-04 19:42 | 51.28896 | 6.77630 | 127 ft | 11 kts | 53° |
| 2026-05-04 19:43 | 51.28955 | 6.77754 | 128 ft | 16 kts | 52° |
| 2026-05-04 19:43 | 51.29014 | 6.77876 | 129 ft | 12 kts | 52° |
| 2026-05-04 19:43 | 51.29057 | 6.77967 | 128 ft | 9 kts | 53° |
| 2026-05-04 19:43 | 51.29087 | 6.78031 | 131 ft | 7 kts | 53° |
| 2026-05-04 19:44 | 51.29112 | 6.78084 | 133 ft | 4 kts | 53° |
| 2026-05-04 19:44 | 51.29119 | 6.78098 | 133 ft | 0 kts | 53° |
| 2026-05-04 19:44 | 51.29125 | 6.78113 | 134 ft | 5 kts | 53° |
| 2026-05-04 19:44 | 51.29141 | 6.78145 | 135 ft | 2 kts | 53° |
| 2026-05-04 19:45 | 51.29160 | 6.78185 | 136 ft | 7 kts | 52° |
| 2026-05-04 19:45 | 51.29195 | 6.78258 | 139 ft | 9 kts | 52° |
| 2026-05-04 19:45 | 51.29220 | 6.78311 | 141 ft | 3 kts | 52° |
| 2026-05-04 19:45 | 51.29223 | 6.78316 | 141 ft | 0 kts | 52° |
| 2026-05-04 19:46 | 51.29226 | 6.78324 | 141 ft | 4 kts | 52° |
| 2026-05-04 19:46 | 51.29256 | 6.78386 | 144 ft | 5 kts | 52° |
| 2026-05-04 19:46 | 51.29265 | 6.78404 | 145 ft | 0 kts | 52° |
| 2026-05-04 19:46 | 51.29266 | 6.78407 | 145 ft | 2 kts | 52° |
| 2026-05-04 19:47 | 51.29287 | 6.78451 | 147 ft | 4 kts | 52° |
| 2026-05-04 19:47 | 51.29294 | 6.78465 | 147 ft | 0 kts | 52° |
| 2026-05-04 19:49 | 51.29307 | 6.78492 | 148 ft | 6 kts | 52° |
| 2026-05-04 19:50 | 51.29321 | 6.78521 | 150 ft | 0 kts | 50° |
| 2026-05-04 19:51 | 51.29326 | 6.78530 | 150 ft | 2 kts | 48° |
| 2026-05-04 19:51 | 51.29327 | 6.78531 | 150 ft | 0 kts | 48° |
| 2026-05-04 19:51 | 51.29334 | 6.78543 | 151 ft | 3 kts | 43° |
| 2026-05-04 19:52 | 51.29357 | 6.78564 | 152 ft | 2 kts | 23° |
| 2026-05-04 19:52 | 51.29360 | 6.78565 | 152 ft | 0 kts | 20° |
| 2026-05-04 19:52 | 51.29362 | 6.78566 | 152 ft | 2 kts | 19° |
| 2026-05-04 19:53 | 51.29389 | 6.78574 | 152 ft | 2 kts | 2° |
| 2026-05-04 19:53 | 51.29392 | 6.78573 | 152 ft | 0 kts | 359° |
| 2026-05-04 19:54 | 51.29410 | 6.78572 | 152 ft | 5 kts | 356° |
| 2026-05-04 19:54 | 51.29435 | 6.78568 | 152 ft | 0 kts | 355° |
| 2026-05-04 19:56 | 51.29436 | 6.78568 | 152 ft | 1 kts | 355° |
| 2026-05-04 19:56 | 51.29474 | 6.78563 | 153 ft | 9 kts | 355° |
| 2026-05-04 19:56 | 51.29525 | 6.78556 | 154 ft | 6 kts | 355° |
| 2026-05-04 19:57 | 51.29539 | 6.78533 | 154 ft | 3 kts | 277° |
| 2026-05-04 19:57 | 51.29527 | 6.78487 | 153 ft | 5 kts | 237° |
| 2026-05-04 19:57 | 51.29523 | 6.78479 | 152 ft | 0 kts | 234° |
| 2026-05-04 19:58 | 51.29522 | 6.78476 | 152 ft | 0 kts | 233° |
| 2026-05-04 19:59 | 51.29522 | 6.78475 | 152 ft | 0 kts | 233° |
| 2026-05-04 19:59 | 51.29483 | 6.78392 | 149 ft | 33 kts | 233° |
| 2026-05-04 19:59 | 51.29181 | 6.77763 | 136 ft | 107 kts | 232° |
| 2026-05-04 20:00 | 51.28605 | 6.76562 | 142 ft | 162 kts | 232° |
| 2026-05-04 20:00 | 51.27909 | 6.75063 | 672 ft | 170 kts | 231° |
| 2026-05-04 20:00 | 51.27204 | 6.73543 | 1335 ft | 169 kts | 231° |
| 2026-05-04 20:00 | 51.26502 | 6.72020 | 1901 ft | 171 kts | 232° |
| 2026-05-04 20:01 | 51.25794 | 6.70487 | 2505 ft | 172 kts | 232° |
| 2026-05-04 20:01 | 51.25077 | 6.68949 | 3081 ft | 173 kts | 231° |
| 2026-05-04 20:01 | 51.24354 | 6.67397 | 3574 ft | 180 kts | 232° |
| 2026-05-04 20:01 | 51.23565 | 6.65703 | 3814 ft | 200 kts | 232° |
| 2026-05-04 20:02 | 51.22659 | 6.63872 | 3954 ft | 223 kts | 223° |
| 2026-05-04 20:02 | 51.21196 | 6.62771 | 3992 ft | 251 kts | 184° |
| 2026-05-04 20:02 | 51.19418 | 6.62918 | 4553 ft | 261 kts | 173° |
| 2026-05-04 20:02 | 51.17610 | 6.63407 | 5223 ft | 266 kts | 170° |
| 2026-05-04 20:03 | 51.15786 | 6.63982 | 5962 ft | 269 kts | 168° |
| 2026-05-04 20:03 | 51.14063 | 6.65113 | 6683 ft | 272 kts | 141° |
| 2026-05-04 20:03 | 51.12984 | 6.67549 | 7478 ft | 274 kts | 109° |
| 2026-05-04 20:03 | 51.12885 | 6.70574 | 8251 ft | 282 kts | 89° |
| 2026-05-04 20:04 | 51.13050 | 6.73754 | 8747 ft | 292 kts | 88° |
| 2026-05-04 20:04 | 51.13231 | 6.76984 | 9459 ft | 294 kts | 88° |
| 2026-05-04 20:04 | 51.13403 | 6.80246 | 10114 ft | 298 kts | 89° |
| 2026-05-04 20:04 | 51.13559 | 6.83642 | 10311 ft | 319 kts | 89° |
| 2026-05-04 20:05 | 51.13710 | 6.87294 | 10445 ft | 339 kts | 89° |
| 2026-05-04 20:05 | 51.13855 | 6.91112 | 10807 ft | 350 kts | 89° |
| 2026-05-04 20:05 | 51.13997 | 6.94955 | 11362 ft | 354 kts | 89° |
| 2026-05-04 20:05 | 51.14139 | 6.98887 | 11945 ft | 357 kts | 89° |
| 2026-05-04 20:06 | 51.14284 | 7.02902 | 12544 ft | 360 kts | 89° |
| 2026-05-04 20:06 | 51.14423 | 7.06897 | 13141 ft | 363 kts | 90° |
| 2026-05-04 20:06 | 51.14287 | 7.10862 | 13708 ft | 364 kts | 101° |
| 2026-05-04 20:06 | 51.13727 | 7.14843 | 14231 ft | 365 kts | 107° |
| 2026-05-04 20:07 | 51.13112 | 7.18738 | 14742 ft | 369 kts | 107° |
| 2026-05-04 20:07 | 51.12250 | 7.22574 | 15242 ft | 368 kts | 121° |
| 2026-05-04 20:07 | 51.10761 | 7.25850 | 15760 ft | 365 kts | 138° |
| 2026-05-04 20:07 | 51.08705 | 7.28246 | 16257 ft | 364 kts | 154° |
| 2026-05-04 20:08 | 51.06497 | 7.30137 | 16751 ft | 366 kts | 154° |
| 2026-05-04 20:08 | 51.04230 | 7.32044 | 17274 ft | 369 kts | 154° |
| 2026-05-04 20:08 | 51.01942 | 7.33961 | 17774 ft | 372 kts | 154° |
| 2026-05-04 20:08 | 50.99645 | 7.35883 | 18267 ft | 375 kts | 154° |
| 2026-05-04 20:09 | 50.97330 | 7.37824 | 18694 ft | 378 kts | 154° |
| 2026-05-04 20:09 | 50.94995 | 7.39779 | 19110 ft | 380 kts | 154° |
| 2026-05-04 20:09 | 50.92644 | 7.41753 | 19530 ft | 383 kts | 154° |
| 2026-05-04 20:09 | 50.90283 | 7.43734 | 19945 ft | 385 kts | 155° |
| 2026-05-04 20:10 | 50.87937 | 7.45702 | 20357 ft | 388 kts | 155° |
| 2026-05-04 20:10 | 50.85545 | 7.47708 | 20769 ft | 390 kts | 155° |
| 2026-05-04 20:10 | 50.83136 | 7.49722 | 20971 ft | 392 kts | 155° |
| 2026-05-04 20:10 | 50.80727 | 7.51733 | 20989 ft | 392 kts | 155° |
| 2026-05-04 20:11 | 50.78316 | 7.53742 | 21007 ft | 392 kts | 155° |
| 2026-05-04 20:11 | 50.75895 | 7.55757 | 21007 ft | 392 kts | 155° |
| 2026-05-04 20:11 | 50.73482 | 7.57766 | 21007 ft | 393 kts | 155° |
| 2026-05-04 20:11 | 50.71066 | 7.59780 | 21004 ft | 393 kts | 155° |
| 2026-05-04 20:12 | 50.68676 | 7.61775 | 20836 ft | 384 kts | 155° |
| 2026-05-04 20:12 | 50.66327 | 7.63725 | 20364 ft | 378 kts | 155° |
| 2026-05-04 20:12 | 50.64005 | 7.65642 | 19847 ft | 375 kts | 155° |
| 2026-05-04 20:12 | 50.61707 | 7.67536 | 19332 ft | 372 kts | 155° |
| 2026-05-04 20:13 | 50.59424 | 7.69418 | 18822 ft | 369 kts | 155° |
| 2026-05-04 20:13 | 50.57171 | 7.71274 | 18316 ft | 366 kts | 155° |
| 2026-05-04 20:13 | 50.54918 | 7.73125 | 17734 ft | 362 kts | 155° |
| 2026-05-04 20:13 | 50.52695 | 7.74961 | 17165 ft | 359 kts | 155° |
| 2026-05-04 20:14 | 50.50498 | 7.76774 | 16613 ft | 356 kts | 155° |
| 2026-05-04 20:14 | 50.48315 | 7.78570 | 16077 ft | 353 kts | 155° |
| 2026-05-04 20:14 | 50.46150 | 7.80349 | 15547 ft | 349 kts | 155° |
| 2026-05-04 20:14 | 50.44010 | 7.82117 | 15025 ft | 347 kts | 153° |
| 2026-05-04 20:15 | 50.42045 | 7.84317 | 14512 ft | 346 kts | 144° |
| 2026-05-04 20:15 | 50.40164 | 7.86664 | 13983 ft | 344 kts | 144° |
| 2026-05-04 20:15 | 50.38296 | 7.88989 | 13398 ft | 342 kts | 144° |
| 2026-05-04 20:15 | 50.36437 | 7.91300 | 12809 ft | 340 kts | 144° |
| 2026-05-04 20:16 | 50.34589 | 7.93592 | 12281 ft | 337 kts | 145° |
| 2026-05-04 20:16 | 50.32761 | 7.95849 | 11753 ft | 333 kts | 145° |
| 2026-05-04 20:16 | 50.30945 | 7.98087 | 11237 ft | 330 kts | 145° |
| 2026-05-04 20:16 | 50.29151 | 8.00299 | 10806 ft | 325 kts | 145° |
| 2026-05-04 20:17 | 50.27422 | 8.02438 | 10679 ft | 310 kts | 145° |
| 2026-05-04 20:17 | 50.25889 | 8.04723 | 10543 ft | 300 kts | 133° |
| 2026-05-04 20:17 | 50.24652 | 8.07325 | 10122 ft | 301 kts | 125° |
| 2026-05-04 20:17 | 50.23912 | 8.10415 | 9650 ft | 309 kts | 102° |
| 2026-05-04 20:18 | 50.23668 | 8.13735 | 9254 ft | 306 kts | 99° |
| 2026-05-04 20:18 | 50.23450 | 8.16988 | 8862 ft | 303 kts | 99° |
| 2026-05-04 20:18 | 50.23230 | 8.20295 | 8469 ft | 301 kts | 99° |
| 2026-05-04 20:18 | 50.23017 | 8.23526 | 8077 ft | 298 kts | 99° |
| 2026-05-04 20:19 | 50.22809 | 8.26692 | 7710 ft | 295 kts | 99° |
| 2026-05-04 20:19 | 50.22599 | 8.29860 | 7325 ft | 292 kts | 99° |
| 2026-05-04 20:19 | 50.22390 | 8.33003 | 6960 ft | 290 kts | 98° |
| 2026-05-04 20:19 | 50.22180 | 8.36112 | 6591 ft | 287 kts | 98° |
| 2026-05-04 20:20 | 50.21970 | 8.39210 | 6218 ft | 285 kts | 98° |
| 2026-05-04 20:20 | 50.21760 | 8.42272 | 5839 ft | 283 kts | 98° |
| 2026-05-04 20:20 | 50.21547 | 8.45324 | 5473 ft | 281 kts | 98° |
| 2026-05-04 20:20 | 50.21338 | 8.48344 | 5096 ft | 279 kts | 97° |
| 2026-05-04 20:21 | 50.21131 | 8.51343 | 4722 ft | 277 kts | 97° |
| 2026-05-04 20:21 | 50.20926 | 8.54318 | 4338 ft | 275 kts | 97° |